createdAt,value
2015-09-19T00:00:06.408Z,0.67
2015-09-19T00:00:18.815Z,0.67
2015-09-19T00:00:31.223Z,0.6
2015-09-19T00:00:43.645Z,0.72
2015-09-19T00:00:56.067Z,0.75
2015-09-19T00:01:08.489Z,0.74
2015-09-19T00:01:20.926Z,0.74
2015-09-19T00:01:33.381Z,0.69
2015-09-19T00:01:45.787Z,0.72
2015-09-19T00:01:58.194Z,0.78
2015-09-19T00:02:10.584Z,0.76
2015-09-19T00:02:22.975Z,0.66
2015-09-19T00:02:34.649Z,0.72
2015-09-19T00:02:47.055Z,0.71
2015-09-19T00:02:59.446Z,0.64
2015-09-19T00:03:11.836Z,0.57
2015-09-19T00:03:24.227Z,0.69
2015-09-19T00:03:36.635Z,0.69
2015-09-19T00:03:48.901Z,0.67
2015-09-19T00:04:01.307Z,0.75
2015-09-19T00:04:13.729Z,0.75
2015-09-19T00:04:26.151Z,0.71
2015-09-19T00:04:38.575Z,0.71
2015-09-19T00:04:51.012Z,0.75
2015-09-19T00:05:03.434Z,0.79
2015-09-19T00:05:15.825Z,0.67
2015-09-19T00:05:28.215Z,0.66
2015-09-19T00:05:40.624Z,0.81
2015-09-19T00:05:53.014Z,0.81
2015-09-19T00:06:05.420Z,0.75
2015-09-19T00:06:17.811Z,0.74
2015-09-19T00:06:30.202Z,0.72
2015-09-19T00:06:42.610Z,0.78
2015-09-19T00:06:55.001Z,0.79
2015-09-19T00:07:07.422Z,0.66
2015-09-19T00:07:19.813Z,0.71
2015-09-19T00:07:32.235Z,0.66
2015-09-19T00:07:44.659Z,0.76
2015-09-19T00:07:57.096Z,0.71
2015-09-19T00:08:09.487Z,0.76
2015-09-19T00:08:21.878Z,0.78
2015-09-19T00:08:34.268Z,0.79
2015-09-19T00:08:46.676Z,0.74
2015-09-19T00:08:59.067Z,0.64
2015-09-19T00:09:10.598Z,0.72
2015-09-19T00:09:23.005Z,0.82
2015-09-19T00:09:34.692Z,0.66
2015-09-19T00:09:47.085Z,0.78
2015-09-19T00:09:59.491Z,0.72
2015-09-19T00:10:11.897Z,0.69
2015-09-19T00:10:24.303Z,0.74
2015-09-19T00:10:36.710Z,0.64
2015-09-19T00:10:49.148Z,0.67
2015-09-19T00:11:01.570Z,0.72
2015-09-19T00:11:14.008Z,0.69
2015-09-19T00:11:26.398Z,0.67
2015-09-19T00:11:38.789Z,0.71
2015-09-19T00:11:51.182Z,0.64
2015-09-19T00:12:03.589Z,0.71
2015-09-19T00:12:15.979Z,0.72
2015-09-19T00:12:28.386Z,0.63
2015-09-19T00:12:40.636Z,0.67
2015-09-19T00:12:52.856Z,0.67
2015-09-19T00:13:05.263Z,0.66
2015-09-19T00:13:17.669Z,0.67
2015-09-19T00:13:30.075Z,0.64
2015-09-19T00:13:42.497Z,0.74
2015-09-19T00:13:54.936Z,0.71
2015-09-19T00:14:07.374Z,0.71
2015-09-19T00:14:19.780Z,0.71
2015-09-19T00:14:32.171Z,0.67
2015-09-19T00:14:44.561Z,0.71
2015-09-19T00:14:56.954Z,0.69
2015-09-19T00:15:09.345Z,0.67
2015-09-19T00:15:21.735Z,0.69
2015-09-19T00:15:34.173Z,0.74
2015-09-19T00:15:46.579Z,0.71
2015-09-19T00:15:58.986Z,0.69
2015-09-19T00:16:11.408Z,0.66
2015-09-19T00:16:23.830Z,0.67
2015-09-19T00:16:36.252Z,0.63
2015-09-19T00:16:48.674Z,0.71
2015-09-19T00:17:01.099Z,0.71
2015-09-19T00:17:13.521Z,0.69
2015-09-19T00:17:25.927Z,0.63
2015-09-19T00:17:38.333Z,0.64
2015-09-19T00:17:50.724Z,0.66
2015-09-19T00:18:03.115Z,0.63
2015-09-19T00:18:15.522Z,0.6
2015-09-19T00:18:27.912Z,0.61
2015-09-19T00:18:40.318Z,0.63
2015-09-19T00:18:52.712Z,0.6
2015-09-19T00:19:05.118Z,0.63
2015-09-19T00:19:17.525Z,0.64
2015-09-19T00:19:29.931Z,0.56
2015-09-19T00:19:42.353Z,0.56
2015-09-19T00:19:54.791Z,0.56
2015-09-19T00:20:07.213Z,0.5
2015-09-19T00:20:19.651Z,0.52
2015-09-19T00:20:32.041Z,0.52
2015-09-19T00:20:44.432Z,0.58
2015-09-19T00:20:56.824Z,0.57
2015-09-19T00:21:09.231Z,0.57
2015-09-19T00:21:21.621Z,0.47
2015-09-19T00:21:34.028Z,0.58
2015-09-19T00:21:46.496Z,0.48
2015-09-19T00:21:58.937Z,0.48
2015-09-19T00:22:11.327Z,0.57
2015-09-19T00:22:23.734Z,0.48
2015-09-19T00:22:36.140Z,0.47
2015-09-19T00:22:47.827Z,0.48
2015-09-19T00:23:00.250Z,0.56
2015-09-19T00:23:12.688Z,0.56
2015-09-19T00:23:24.953Z,0.5
2015-09-19T00:23:37.407Z,0.48
2015-09-19T00:23:49.844Z,0.52
2015-09-19T00:24:02.237Z,0.47
2015-09-19T00:24:13.924Z,0.5
2015-09-19T00:24:26.299Z,0.47
2015-09-19T00:24:38.705Z,0.53
2015-09-19T00:24:51.112Z,0.56
2015-09-19T00:25:03.504Z,0.48
2015-09-19T00:25:15.911Z,0.52
2015-09-19T00:25:28.301Z,0.44
2015-09-19T00:25:40.692Z,0.56
2015-09-19T00:25:53.082Z,0.53
2015-09-19T00:26:05.491Z,0.48
2015-09-19T00:26:17.897Z,0.57
2015-09-19T00:26:30.319Z,0.48
2015-09-19T00:26:42.741Z,0.57
2015-09-19T00:26:55.178Z,0.56
2015-09-19T00:27:07.619Z,0.5
2015-09-19T00:27:20.056Z,0.58
2015-09-19T00:27:32.494Z,0.5
2015-09-19T00:27:44.884Z,0.61
2015-09-19T00:27:57.291Z,0.53
2015-09-19T00:28:09.682Z,0.63
2015-09-19T00:28:22.088Z,0.56
2015-09-19T00:28:34.479Z,0.6
2015-09-19T00:28:46.870Z,0.64
2015-09-19T00:28:59.260Z,0.64
2015-09-19T00:29:11.669Z,0.58
2015-09-19T00:29:24.059Z,0.57
2015-09-19T00:29:36.465Z,0.61
2015-09-19T00:29:48.887Z,0.66
2015-09-19T00:30:01.309Z,0.63
2015-09-19T00:30:13.733Z,0.6
2015-09-19T00:30:26.155Z,0.64
2015-09-19T00:30:38.577Z,0.52
2015-09-19T00:30:51.014Z,0.63
2015-09-19T00:31:03.405Z,0.67
2015-09-19T00:31:15.798Z,0.63
2015-09-19T00:31:28.204Z,0.63
2015-09-19T00:31:40.594Z,0.69
2015-09-19T00:31:52.985Z,0.66
2015-09-19T00:32:05.391Z,0.64
2015-09-19T00:32:17.784Z,0.64
2015-09-19T00:32:30.175Z,0.69
2015-09-19T00:32:42.565Z,0.74
2015-09-19T00:32:54.971Z,0.64
2015-09-19T00:33:07.378Z,0.72
2015-09-19T00:33:19.802Z,0.69
2015-09-19T00:33:32.223Z,0.69
2015-09-19T00:33:44.630Z,0.61
2015-09-19T00:33:57.052Z,0.64
2015-09-19T00:34:09.442Z,0.75
2015-09-19T00:34:21.819Z,0.71
2015-09-19T00:34:34.210Z,0.71
2015-09-19T00:34:46.616Z,0.71
2015-09-19T00:34:58.835Z,0.71
2015-09-19T00:35:11.225Z,0.74
2015-09-19T00:35:23.634Z,0.64
2015-09-19T00:35:36.024Z,0.74
2015-09-19T00:35:47.712Z,0.72
2015-09-19T00:36:00.118Z,0.69
2015-09-19T00:36:12.540Z,0.74
2015-09-19T00:36:24.948Z,0.79
2015-09-19T00:36:37.370Z,0.69
2015-09-19T00:36:49.808Z,0.74
2015-09-19T00:37:02.229Z,0.69
2015-09-19T00:37:14.651Z,0.63
2015-09-19T00:37:27.060Z,0.72
2015-09-19T00:37:39.450Z,0.64
2015-09-19T00:37:51.841Z,0.74
2015-09-19T00:38:04.263Z,0.74
2015-09-19T00:38:16.653Z,0.74
2015-09-19T00:38:29.062Z,0.67
2015-09-19T00:38:41.452Z,0.72
2015-09-19T00:38:53.858Z,0.78
2015-09-19T00:39:06.265Z,0.69
2015-09-19T00:39:18.671Z,0.71
2015-09-19T00:39:31.063Z,0.61
2015-09-19T00:39:43.500Z,0.72
2015-09-19T00:39:55.781Z,0.63
2015-09-19T00:40:08.203Z,0.66
2015-09-19T00:40:20.594Z,0.71
2015-09-19T00:40:32.987Z,0.71
2015-09-19T00:40:45.378Z,0.71
2015-09-19T00:40:57.769Z,0.72
2015-09-19T00:41:10.159Z,0.71
2015-09-19T00:41:22.566Z,0.75
2015-09-19T00:41:34.957Z,0.63
2015-09-19T00:41:47.348Z,0.66
2015-09-19T00:41:59.770Z,0.71
2015-09-19T00:42:12.176Z,0.72
2015-09-19T00:42:24.598Z,0.71
2015-09-19T00:42:37.006Z,0.72
2015-09-19T00:42:49.412Z,0.74
2015-09-19T00:43:01.834Z,0.66
2015-09-19T00:43:14.256Z,0.66
2015-09-19T00:43:26.711Z,0.57
2015-09-19T00:43:39.133Z,0.63
2015-09-19T00:43:51.571Z,0.63
2015-09-19T00:44:03.961Z,0.53
2015-09-19T00:44:16.352Z,0.63
2015-09-19T00:44:28.761Z,0.58
2015-09-19T00:44:41.152Z,0.66
2015-09-19T00:44:53.542Z,0.53
2015-09-19T00:45:05.933Z,0.64
2015-09-19T00:45:18.339Z,0.63
2015-09-19T00:45:30.747Z,0.56
2015-09-19T00:45:43.138Z,0.48
2015-09-19T00:45:54.826Z,0.61
2015-09-19T00:46:07.247Z,0.6
2015-09-19T00:46:19.654Z,0.6
2015-09-19T00:46:32.103Z,0.61
2015-09-19T00:46:44.540Z,0.61
2015-09-19T00:46:56.962Z,0.58
2015-09-19T00:47:09.400Z,0.6
2015-09-19T00:47:21.822Z,0.66
2015-09-19T00:47:33.556Z,0.61
2015-09-19T00:47:45.947Z,0.57
2015-09-19T00:47:58.337Z,0.61
2015-09-19T00:48:10.744Z,0.61
2015-09-19T00:48:23.134Z,0.6
2015-09-19T00:48:35.589Z,0.57
2015-09-19T00:48:47.979Z,0.6
2015-09-19T00:49:00.370Z,0.52
2015-09-19T00:49:12.776Z,0.61
2015-09-19T00:49:25.182Z,0.56
2015-09-19T00:49:37.636Z,0.53
2015-09-19T00:49:50.073Z,0.48
2015-09-19T00:50:02.495Z,0.58
2015-09-19T00:50:14.917Z,0.52
2015-09-19T00:50:27.339Z,0.5
2015-09-19T00:50:39.777Z,0.44
2015-09-19T00:50:52.184Z,0.44
2015-09-19T00:51:04.418Z,0.42
2015-09-19T00:51:16.809Z,0.5
2015-09-19T00:51:29.199Z,0.41
2015-09-19T00:51:41.609Z,0.45
2015-09-19T00:51:54.046Z,0.42
2015-09-19T00:52:06.453Z,0.47
2015-09-19T00:52:18.859Z,0.39
2015-09-19T00:52:31.296Z,0.45
2015-09-19T00:52:43.736Z,0.52
2015-09-19T00:52:56.158Z,0.56
2015-09-19T00:53:08.580Z,0.39
2015-09-19T00:53:20.971Z,0.52
2015-09-19T00:53:33.377Z,0.57
2015-09-19T00:53:45.785Z,0.39
2015-09-19T00:53:58.176Z,0.48
2015-09-19T00:54:10.567Z,0.48
2015-09-19T00:54:22.957Z,0.39
2015-09-19T00:54:35.364Z,0.45
2015-09-19T00:54:47.757Z,0.47
2015-09-19T00:55:00.194Z,0.42
2015-09-19T00:55:12.600Z,0.47
2015-09-19T00:55:25.007Z,0.53
2015-09-19T00:55:37.432Z,0.45
2015-09-19T00:55:49.854Z,0.41
2015-09-19T00:56:02.291Z,0.47
2015-09-19T00:56:14.713Z,0.44
2015-09-19T00:56:27.135Z,0.53
2015-09-19T00:56:39.533Z,0.44
2015-09-19T00:56:51.923Z,0.47
2015-09-19T00:57:04.329Z,0.57
2015-09-19T00:57:16.736Z,0.45
2015-09-19T00:57:29.126Z,0.45
2015-09-19T00:57:41.525Z,0.48
2015-09-19T00:57:53.931Z,0.52
2015-09-19T00:58:06.322Z,0.56
2015-09-19T00:58:18.728Z,0.42
2015-09-19T00:58:31.134Z,0.41
2015-09-19T00:58:43.549Z,0.47
2015-09-19T00:58:55.955Z,0.5
2015-09-19T00:59:08.392Z,0.52
2015-09-19T00:59:20.814Z,0.44
2015-09-19T00:59:33.236Z,0.39
2015-09-19T00:59:45.666Z,0.5
2015-09-19T00:59:58.088Z,0.47
2015-09-19T01:00:10.525Z,0.48
2015-09-19T01:00:22.916Z,0.53
2015-09-19T01:00:35.307Z,0.48
2015-09-19T01:00:47.720Z,0.5
2015-09-19T01:01:00.110Z,0.38
2015-09-19T01:01:12.501Z,0.42
2015-09-19T01:01:24.907Z,0.5
2015-09-19T01:01:37.314Z,0.39
2015-09-19T01:01:49.725Z,0.48
2015-09-19T01:02:02.131Z,0.41
2015-09-19T01:02:14.553Z,0.45
2015-09-19T01:02:26.975Z,0.5
2015-09-19T01:02:39.397Z,0.5
2015-09-19T01:02:51.791Z,0.52
2015-09-19T01:03:04.182Z,0.5
2015-09-19T01:03:16.573Z,0.52
2015-09-19T01:03:28.963Z,0.52
2015-09-19T01:03:41.369Z,0.5
2015-09-19T01:03:53.764Z,0.47
2015-09-19T01:04:06.155Z,0.6
2015-09-19T01:04:18.545Z,0.47
2015-09-19T01:04:30.936Z,0.38
2015-09-19T01:04:43.342Z,0.48
2015-09-19T01:04:55.752Z,0.5
2015-09-19T01:05:08.174Z,0.42
2015-09-19T01:05:20.596Z,0.45
2015-09-19T01:05:33.018Z,0.45
2015-09-19T01:05:45.471Z,0.45
2015-09-19T01:05:58.335Z,0.48
2015-09-19T01:06:10.788Z,0.6
2015-09-19T01:06:23.178Z,0.5
2015-09-19T01:06:35.585Z,0.42
2015-09-19T01:06:47.256Z,0.52
2015-09-19T01:06:59.666Z,0.45
2015-09-19T01:07:12.056Z,0.45
2015-09-19T01:07:24.447Z,0.39
2015-09-19T01:07:36.838Z,0.57
2015-09-19T01:07:49.228Z,0.41
2015-09-19T01:08:01.637Z,0.48
2015-09-19T01:08:14.059Z,0.58
2015-09-19T01:08:26.466Z,0.53
2015-09-19T01:08:38.872Z,0.57
2015-09-19T01:08:51.309Z,0.45
2015-09-19T01:09:03.733Z,0.57
2015-09-19T01:09:16.155Z,0.42
2015-09-19T01:09:28.577Z,0.56
2015-09-19T01:09:40.983Z,0.5
2015-09-19T01:09:53.374Z,0.42
2015-09-19T01:10:05.767Z,0.42
2015-09-19T01:10:18.174Z,0.5
2015-09-19T01:10:30.564Z,0.42
2015-09-19T01:10:42.971Z,0.44
2015-09-19T01:10:55.364Z,0.5
2015-09-19T01:11:07.770Z,0.56
2015-09-19T01:11:20.161Z,0.45
2015-09-19T01:11:32.567Z,0.53
2015-09-19T01:11:44.974Z,0.39
2015-09-19T01:11:57.382Z,0.44
2015-09-19T01:12:09.804Z,0.42
2015-09-19T01:12:22.241Z,0.42
2015-09-19T01:12:34.679Z,0.45
2015-09-19T01:12:47.101Z,0.35
2015-09-19T01:12:59.541Z,0.42
2015-09-19T01:13:11.947Z,0.45
2015-09-19T01:13:24.338Z,0.42
2015-09-19T01:13:36.744Z,0.39
2015-09-19T01:13:49.150Z,0.47
2015-09-19T01:14:01.543Z,0.53
2015-09-19T01:14:13.934Z,0.56
2015-09-19T01:14:26.324Z,0.39
2015-09-19T01:14:38.731Z,0.56
2015-09-19T01:14:51.137Z,0.52
2015-09-19T01:15:03.545Z,0.57
2015-09-19T01:15:15.936Z,0.57
2015-09-19T01:15:28.373Z,0.41
2015-09-19T01:15:40.795Z,0.41
2015-09-19T01:15:53.233Z,0.47
2015-09-19T01:16:05.641Z,0.45
2015-09-19T01:16:18.031Z,0.42
2015-09-19T01:16:30.438Z,0.44
2015-09-19T01:16:42.828Z,0.5
2015-09-19T01:16:55.219Z,0.42
2015-09-19T01:17:07.612Z,0.41
2015-09-19T01:17:20.002Z,0.48
2015-09-19T01:17:32.408Z,0.44
2015-09-19T01:17:44.096Z,0.45
2015-09-19T01:17:56.487Z,0.44
2015-09-19T01:18:08.879Z,0.37
2015-09-19T01:18:21.285Z,0.5
2015-09-19T01:18:33.676Z,0.48
2015-09-19T01:18:46.082Z,0.47
2015-09-19T01:18:58.489Z,0.37
2015-09-19T01:19:10.928Z,0.41
2015-09-19T01:19:23.350Z,0.48
2015-09-19T01:19:35.741Z,0.32
2015-09-19T01:19:48.131Z,0.45
2015-09-19T01:20:00.522Z,0.35
2015-09-19T01:20:12.212Z,0.38
2015-09-19T01:20:24.603Z,0.47
2015-09-19T01:20:36.994Z,0.39
2015-09-19T01:20:49.400Z,0.35
2015-09-19T01:21:01.790Z,0.35
2015-09-19T01:21:14.198Z,0.35
2015-09-19T01:21:26.620Z,0.31
2015-09-19T01:21:39.026Z,0.37
2015-09-19T01:21:51.416Z,0.35
2015-09-19T01:22:03.854Z,0.35
2015-09-19T01:22:16.278Z,0.42
2015-09-19T01:22:28.700Z,0.37
2015-09-19T01:22:41.122Z,0.34
2015-09-19T01:22:53.418Z,0.37
2015-09-19T01:23:05.825Z,0.37
2015-09-19T01:23:18.217Z,0.42
2015-09-19T01:23:30.608Z,0.37
2015-09-19T01:23:43.014Z,0.42
2015-09-19T01:23:55.405Z,0.32
2015-09-19T01:24:07.092Z,0.34
2015-09-19T01:24:19.485Z,0.37
2015-09-19T01:24:31.876Z,0.38
2015-09-19T01:24:44.282Z,0.34
2015-09-19T01:24:56.688Z,0.32
2015-09-19T01:25:09.094Z,0.35
2015-09-19T01:25:21.503Z,0.32
2015-09-19T01:25:33.237Z,0.39
2015-09-19T01:25:45.659Z,0.35
2015-09-19T01:25:58.081Z,0.35
2015-09-19T01:26:10.518Z,0.35
2015-09-19T01:26:22.942Z,0.34
2015-09-19T01:26:35.364Z,0.39
2015-09-19T01:26:47.755Z,0.37
2015-09-19T01:27:00.145Z,0.31
2015-09-19T01:27:12.551Z,0.32
2015-09-19T01:27:24.944Z,0.35
2015-09-19T01:27:37.335Z,0.32
2015-09-19T01:27:49.741Z,0.28
2015-09-19T01:28:02.147Z,0.31
2015-09-19T01:28:14.555Z,0.35
2015-09-19T01:28:26.962Z,0.27
2015-09-19T01:28:39.368Z,0.37
2015-09-19T01:28:51.774Z,0.37
2015-09-19T01:29:04.196Z,0.34
2015-09-19T01:29:16.620Z,0.31
2015-09-19T01:29:29.026Z,0.37
2015-09-19T01:29:41.464Z,0.23
2015-09-19T01:29:53.901Z,0.23
2015-09-19T01:30:06.292Z,0.27
2015-09-19T01:30:18.684Z,0.31
2015-09-19T01:30:31.091Z,0.27
2015-09-19T01:30:42.075Z,0.28
2015-09-19T01:30:54.466Z,0.27
2015-09-19T01:31:06.856Z,0.28
2015-09-19T01:31:19.296Z,0.28
2015-09-19T01:31:31.702Z,0.23
2015-09-19T01:31:44.093Z,0.31
2015-09-19T01:31:56.515Z,0.24
2015-09-19T01:32:08.952Z,0.26
2015-09-19T01:32:21.375Z,0.24
2015-09-19T01:32:33.781Z,0.26
2015-09-19T01:32:46.172Z,0.31
2015-09-19T01:32:58.562Z,0.32
2015-09-19T01:33:10.969Z,0.32
2015-09-19T01:33:23.378Z,0.27
2015-09-19T01:33:35.769Z,0.31
2015-09-19T01:33:48.159Z,0.26
2015-09-19T01:34:00.565Z,0.28
2015-09-19T01:34:12.956Z,0.32
2015-09-19T01:34:25.348Z,0.34
2015-09-19T01:34:37.754Z,0.27
2015-09-19T01:34:49.457Z,0.27
2015-09-19T01:35:01.863Z,0.24
2015-09-19T01:35:14.285Z,0.31
2015-09-19T01:35:26.710Z,0.32
2015-09-19T01:35:39.132Z,0.32
2015-09-19T01:35:51.569Z,0.24
2015-09-19T01:36:04.007Z,0.24
2015-09-19T01:36:16.398Z,0.26
2015-09-19T01:36:28.790Z,0.27
2015-09-19T01:36:41.196Z,0.27
2015-09-19T01:36:53.431Z,0.24
2015-09-19T01:37:05.821Z,0.23
2015-09-19T01:37:18.228Z,0.31
2015-09-19T01:37:30.652Z,0.24
2015-09-19T01:37:43.042Z,0.27
2015-09-19T01:37:54.730Z,0.31
2015-09-19T01:38:07.152Z,0.27
2015-09-19T01:38:19.558Z,0.28
2015-09-19T01:38:31.263Z,0.27
2015-09-19T01:38:43.700Z,0.28
2015-09-19T01:38:56.122Z,0.26
2015-09-19T01:39:08.560Z,0.27
2015-09-19T01:39:20.997Z,0.24
2015-09-19T01:39:33.451Z,0.28
2015-09-19T01:39:45.858Z,0.24
2015-09-19T01:39:58.248Z,0.24
2015-09-19T01:40:10.639Z,0.26
2015-09-19T01:40:22.342Z,0.34
2015-09-19T01:40:34.735Z,0.28
2015-09-19T01:40:47.125Z,0.27
2015-09-19T01:40:59.532Z,0.27
2015-09-19T01:41:11.922Z,0.28
2015-09-19T01:41:24.313Z,0.34
2015-09-19T01:41:36.737Z,0.32
2015-09-19T01:41:49.143Z,0.31
2015-09-19T01:42:01.549Z,0.28
2015-09-19T01:42:13.971Z,0.24
2015-09-19T01:42:26.393Z,0.34
2015-09-19T01:42:38.832Z,0.27
2015-09-19T01:42:51.223Z,0.27
2015-09-19T01:43:03.614Z,0.31
2015-09-19T01:43:16.004Z,0.32
2015-09-19T01:43:28.395Z,0.28
2015-09-19T01:43:40.803Z,0.34
2015-09-19T01:43:53.209Z,0.32
2015-09-19T01:44:05.616Z,0.24
2015-09-19T01:44:18.006Z,0.32
2015-09-19T01:44:30.413Z,0.24
2015-09-19T01:44:42.836Z,0.32
2015-09-19T01:44:55.243Z,0.23
2015-09-19T01:45:06.946Z,0.28
2015-09-19T01:45:19.368Z,0.23
2015-09-19T01:45:31.790Z,0.32
2015-09-19T01:45:44.229Z,0.24
2015-09-19T01:45:56.620Z,0.27
2015-09-19T01:46:09.042Z,0.27
2015-09-19T01:46:21.432Z,0.23
2015-09-19T01:46:34.088Z,0.34
2015-09-19T01:46:46.497Z,0.23
2015-09-19T01:46:58.887Z,0.26
2015-09-19T01:47:11.294Z,0.28
2015-09-19T01:47:23.700Z,0.28
2015-09-19T01:47:36.106Z,0.26
2015-09-19T01:47:48.624Z,0.32
2015-09-19T01:48:01.046Z,0.27
2015-09-19T01:48:13.499Z,0.28
2015-09-19T01:48:25.921Z,0.28
2015-09-19T01:48:38.358Z,0.26
2015-09-19T01:48:50.752Z,0.28
2015-09-19T01:49:03.142Z,0.24
2015-09-19T01:49:15.549Z,0.27
2015-09-19T01:49:27.955Z,0.26
2015-09-19T01:49:40.345Z,0.31
2015-09-19T01:49:52.737Z,0.28
2015-09-19T01:50:05.143Z,0.27
2015-09-19T01:50:17.550Z,0.28
2015-09-19T01:50:29.940Z,0.26
2015-09-19T01:50:42.208Z,0.26
2015-09-19T01:50:54.598Z,0.27
2015-09-19T01:51:07.020Z,0.27
2015-09-19T01:51:19.442Z,0.32
2015-09-19T01:51:31.864Z,0.27
2015-09-19T01:51:44.257Z,0.28
2015-09-19T01:51:55.944Z,0.31
2015-09-19T01:52:08.335Z,0.34
2015-09-19T01:52:20.725Z,0.26
2015-09-19T01:52:33.132Z,0.28
2015-09-19T01:52:45.540Z,0.31
2015-09-19T01:52:57.931Z,0.28
2015-09-19T01:53:10.337Z,0.34
2015-09-19T01:53:22.774Z,0.32
2015-09-19T01:53:35.196Z,0.35
2015-09-19T01:53:47.619Z,0.37
2015-09-19T01:54:00.057Z,0.35
2015-09-19T01:54:12.494Z,0.32
2015-09-19T01:54:24.885Z,0.37
2015-09-19T01:54:37.275Z,0.26
2015-09-19T01:54:49.685Z,0.37
2015-09-19T01:55:02.091Z,0.37
2015-09-19T01:55:14.481Z,0.31
2015-09-19T01:55:26.872Z,0.34
2015-09-19T01:55:39.278Z,0.37
2015-09-19T01:55:51.702Z,0.32
2015-09-19T01:56:04.093Z,0.44
2015-09-19T01:56:16.515Z,0.45
2015-09-19T01:56:28.921Z,0.38
2015-09-19T01:56:41.327Z,0.35
2015-09-19T01:56:53.767Z,0.39
2015-09-19T01:57:06.189Z,0.47
2015-09-19T01:57:18.626Z,0.53
2015-09-19T01:57:31.064Z,0.42
2015-09-19T01:57:43.454Z,0.48
2015-09-19T01:57:55.847Z,0.52
2015-09-19T01:58:08.237Z,0.39
2015-09-19T01:58:20.644Z,0.56
2015-09-19T01:58:33.034Z,0.56
2015-09-19T01:58:45.441Z,0.52
2015-09-19T01:58:57.849Z,0.56
2015-09-19T01:59:10.239Z,0.57
2015-09-19T01:59:22.630Z,0.53
2015-09-19T01:59:35.036Z,0.56
2015-09-19T01:59:47.443Z,0.37
2015-09-19T01:59:59.850Z,0.47
2015-09-19T02:00:12.272Z,0.57
2015-09-19T02:00:24.709Z,0.45
2015-09-19T02:00:37.115Z,0.56
2015-09-19T02:00:49.569Z,0.47
2015-09-19T02:01:01.992Z,0.52
2015-09-19T02:01:14.383Z,0.45
2015-09-19T02:01:26.774Z,0.47
2015-09-19T02:01:39.180Z,0.44
2015-09-19T02:01:51.586Z,0.48
2015-09-19T02:02:03.979Z,0.5
2015-09-19T02:02:16.369Z,0.56
2015-09-19T02:02:28.776Z,0.58
2015-09-19T02:02:41.166Z,0.42
2015-09-19T02:02:53.573Z,0.48
2015-09-19T02:03:05.965Z,0.5
2015-09-19T02:03:18.371Z,0.39
2015-09-19T02:03:30.793Z,0.52
2015-09-19T02:03:43.200Z,0.47
2015-09-19T02:03:55.621Z,0.47
2015-09-19T02:04:08.015Z,0.58
2015-09-19T02:04:20.406Z,0.48
2015-09-19T02:04:32.796Z,0.48
2015-09-19T02:04:45.203Z,0.58
2015-09-19T02:04:57.594Z,0.52
2015-09-19T02:05:09.985Z,0.5
2015-09-19T02:05:22.375Z,0.52
2015-09-19T02:05:34.782Z,0.52
2015-09-19T02:05:47.172Z,0.57
2015-09-19T02:05:59.596Z,0.53
2015-09-19T02:06:11.987Z,0.56
2015-09-19T02:06:24.393Z,0.57
2015-09-19T02:06:36.815Z,0.57
2015-09-19T02:06:49.252Z,0.53
2015-09-19T02:07:01.677Z,0.57
2015-09-19T02:07:14.099Z,0.52
2015-09-19T02:07:26.537Z,0.56
2015-09-19T02:07:38.927Z,0.5
2015-09-19T02:07:51.302Z,0.56
2015-09-19T02:08:03.710Z,0.6
2015-09-19T02:08:16.100Z,0.57
2015-09-19T02:08:28.506Z,0.6
2015-09-19T02:08:40.897Z,0.56
2015-09-19T02:08:53.288Z,0.6
2015-09-19T02:09:05.680Z,0.56
2015-09-19T02:09:18.087Z,0.58
2015-09-19T02:09:30.508Z,0.66
2015-09-19T02:09:42.930Z,0.61
2015-09-19T02:09:54.618Z,0.56
2015-09-19T02:10:07.057Z,0.57
2015-09-19T02:10:19.479Z,0.6
2015-09-19T02:10:31.917Z,0.64
2015-09-19T02:10:44.354Z,0.61
2015-09-19T02:10:56.792Z,0.61
2015-09-19T02:11:09.184Z,0.57
2015-09-19T02:11:21.591Z,0.6
2015-09-19T02:11:33.981Z,0.61
2015-09-19T02:11:46.387Z,0.56
2015-09-19T02:11:58.059Z,0.64
2015-09-19T02:12:10.468Z,0.61
2015-09-19T02:12:22.858Z,0.58
2015-09-19T02:12:35.249Z,0.58
2015-09-19T02:12:47.639Z,0.61
2015-09-19T02:13:00.046Z,0.63
2015-09-19T02:13:12.470Z,0.63
2015-09-19T02:13:24.876Z,0.57
2015-09-19T02:13:37.298Z,0.6
2015-09-19T02:13:49.751Z,0.6
2015-09-19T02:14:02.141Z,0.61
2015-09-19T02:14:14.550Z,0.63
2015-09-19T02:14:26.940Z,0.58
2015-09-19T02:14:39.347Z,0.6
2015-09-19T02:14:51.737Z,0.6
2015-09-19T02:15:04.143Z,0.6
2015-09-19T02:15:16.553Z,0.66
2015-09-19T02:15:28.959Z,0.52
2015-09-19T02:15:41.350Z,0.64
2015-09-19T02:15:53.803Z,0.67
2015-09-19T02:16:06.240Z,0.61
2015-09-19T02:16:18.663Z,0.56
2015-09-19T02:16:31.085Z,0.64
2015-09-19T02:16:43.491Z,0.6
2015-09-19T02:16:55.882Z,0.63
2015-09-19T02:17:08.272Z,0.56
2015-09-19T02:17:20.681Z,0.63
2015-09-19T02:17:33.071Z,0.67
2015-09-19T02:17:45.462Z,0.67
2015-09-19T02:17:57.868Z,0.66
2015-09-19T02:18:10.274Z,0.53
2015-09-19T02:18:22.667Z,0.61
2015-09-19T02:18:35.073Z,0.57
2015-09-19T02:18:47.495Z,0.64
2015-09-19T02:18:59.901Z,0.72
2015-09-19T02:19:12.323Z,0.61
2015-09-19T02:19:24.747Z,0.67
2015-09-19T02:19:37.138Z,0.72
2015-09-19T02:19:49.528Z,0.69
2015-09-19T02:20:01.935Z,0.71
2015-09-19T02:20:14.325Z,0.69
2015-09-19T02:20:26.717Z,0.67
2015-09-19T02:20:39.108Z,0.69
2015-09-19T02:20:51.514Z,0.61
2015-09-19T02:21:03.904Z,0.67
2015-09-19T02:21:16.311Z,0.74
2015-09-19T02:21:28.751Z,0.69
2015-09-19T02:21:40.470Z,0.67
2015-09-19T02:21:52.892Z,0.66
2015-09-19T02:22:05.298Z,0.67
2015-09-19T02:22:17.704Z,0.64
2015-09-19T02:22:30.159Z,0.69
2015-09-19T02:22:42.550Z,0.71
2015-09-19T02:22:54.941Z,0.72
2015-09-19T02:23:07.331Z,0.64
2015-09-19T02:23:19.753Z,0.63
2015-09-19T02:23:32.129Z,0.66
2015-09-19T02:23:44.551Z,0.66
2015-09-19T02:23:56.957Z,0.67
2015-09-19T02:24:09.379Z,0.71
2015-09-19T02:24:21.785Z,0.69
2015-09-19T02:24:34.195Z,0.64
2015-09-19T02:24:46.632Z,0.58
2015-09-19T02:24:59.054Z,0.74
2015-09-19T02:25:11.492Z,0.67
2015-09-19T02:25:23.913Z,0.61
2015-09-19T02:25:36.322Z,0.72
2015-09-19T02:25:48.697Z,0.64
2015-09-19T02:26:01.087Z,0.61
2015-09-19T02:26:13.509Z,0.63
2015-09-19T02:26:25.900Z,0.66
2015-09-19T02:26:38.291Z,0.76
2015-09-19T02:26:50.698Z,0.64
2015-09-19T02:27:03.088Z,0.72
2015-09-19T02:27:15.510Z,0.69
2015-09-19T02:27:27.918Z,0.69
2015-09-19T02:27:40.325Z,0.66
2015-09-19T02:27:52.731Z,0.64
2015-09-19T02:28:05.168Z,0.67
2015-09-19T02:28:17.590Z,0.63
2015-09-19T02:28:30.031Z,0.66
2015-09-19T02:28:42.484Z,0.57
2015-09-19T02:28:54.890Z,0.63
2015-09-19T02:29:07.328Z,0.72
2015-09-19T02:29:19.718Z,0.67
2015-09-19T02:29:32.126Z,0.66
2015-09-19T02:29:44.516Z,0.69
2015-09-19T02:29:56.907Z,0.66
2015-09-19T02:30:09.313Z,0.69
2015-09-19T02:30:21.704Z,0.63
2015-09-19T02:30:34.097Z,0.66
2015-09-19T02:30:46.332Z,0.69
2015-09-19T02:30:58.754Z,0.67
2015-09-19T02:31:11.175Z,0.66
2015-09-19T02:31:23.582Z,0.66
2015-09-19T02:31:36.020Z,0.69
2015-09-19T02:31:48.426Z,0.64
2015-09-19T02:32:00.848Z,0.66
2015-09-19T02:32:13.270Z,0.69
2015-09-19T02:32:25.676Z,0.66
2015-09-19T02:32:38.069Z,0.69
2015-09-19T02:32:50.460Z,0.66
2015-09-19T02:33:02.850Z,0.67
2015-09-19T02:33:15.272Z,0.66
2015-09-19T02:33:27.678Z,0.74
2015-09-19T02:33:40.087Z,0.71
2015-09-19T02:33:52.477Z,0.64
2015-09-19T02:34:04.899Z,0.67
2015-09-19T02:34:17.321Z,0.71
2015-09-19T02:34:29.727Z,0.76
2015-09-19T02:34:42.168Z,0.72
2015-09-19T02:34:54.605Z,0.66
2015-09-19T02:35:07.027Z,0.72
2015-09-19T02:35:19.449Z,0.71
2015-09-19T02:35:31.871Z,0.69
2015-09-19T02:35:44.263Z,0.69
2015-09-19T02:35:56.653Z,0.67
2015-09-19T02:36:09.059Z,0.69
2015-09-19T02:36:21.450Z,0.69
2015-09-19T02:36:33.841Z,0.72
2015-09-19T02:36:46.249Z,0.67
2015-09-19T02:36:58.655Z,0.74
2015-09-19T02:37:11.046Z,0.69
2015-09-19T02:37:23.452Z,0.69
2015-09-19T02:37:35.858Z,0.64
2015-09-19T02:37:48.267Z,0.69
2015-09-19T02:38:00.688Z,0.74
2015-09-19T02:38:13.110Z,0.64
2015-09-19T02:38:25.532Z,0.74
2015-09-19T02:38:37.954Z,0.64
2015-09-19T02:38:50.363Z,0.72
2015-09-19T02:39:02.801Z,0.63
2015-09-19T02:39:15.191Z,0.64
2015-09-19T02:39:27.582Z,0.71
2015-09-19T02:39:39.973Z,0.72
2015-09-19T02:39:52.380Z,0.74
2015-09-19T02:40:04.771Z,0.69
2015-09-19T02:40:17.161Z,0.67
2015-09-19T02:40:29.567Z,0.69
2015-09-19T02:40:41.958Z,0.74
2015-09-19T02:40:54.382Z,0.69
2015-09-19T02:41:06.788Z,0.67
2015-09-19T02:41:19.194Z,0.72
2015-09-19T02:41:31.601Z,0.67
2015-09-19T02:41:44.023Z,0.66
2015-09-19T02:41:56.462Z,0.75
2015-09-19T02:42:08.900Z,0.67
2015-09-19T02:42:21.290Z,0.72
2015-09-19T02:42:33.696Z,0.76
2015-09-19T02:42:46.087Z,0.75
2015-09-19T02:42:58.511Z,0.64
2015-09-19T02:43:10.902Z,0.67
2015-09-19T02:43:23.292Z,0.78
2015-09-19T02:43:35.698Z,0.69
2015-09-19T02:43:48.089Z,0.72
2015-09-19T02:44:00.325Z,0.74
2015-09-19T02:44:12.747Z,0.72
2015-09-19T02:44:25.154Z,0.69
2015-09-19T02:44:37.560Z,0.66
2015-09-19T02:44:49.982Z,0.63
2015-09-19T02:45:02.406Z,0.66
2015-09-19T02:45:14.843Z,0.75